sensor_id;sensor_type;location;lat;lon;timestamp;pressure;altitude;pressure_sealevel;temperature
29423;BMP180;16399;51.686;8.684;2022-08-07T00:00:30;100919.00;;;12.60
29423;BMP180;16399;51.686;8.684;2022-08-07T00:03:41;100918.00;;;12.60
29423;BMP180;16399;51.686;8.684;2022-08-07T00:06:44;100924.00;;;12.50
29423;BMP180;16399;51.686;8.684;2022-08-07T00:09:46;100921.00;;;12.50
29423;BMP180;16399;51.686;8.684;2022-08-07T00:12:49;100914.00;;;12.50
29423;BMP180;16399;51.686;8.684;2022-08-07T00:15:52;100920.00;;;12.50
29423;BMP180;16399;51.686;8.684;2022-08-07T00:18:55;100912.00;;;12.40
29423;BMP180;16399;51.686;8.684;2022-08-07T00:21:58;100922.00;;;12.40
29423;BMP180;16399;51.686;8.684;2022-08-07T00:25:06;100913.00;;;12.40
29423;BMP180;16399;51.686;8.684;2022-08-07T00:28:09;100917.00;;;12.40
29423;BMP180;16399;51.686;8.684;2022-08-07T00:31:12;100910.00;;;12.40
29423;BMP180;16399;51.686;8.684;2022-08-07T00:34:14;100909.00;;;12.40
29423;BMP180;16399;51.686;8.684;2022-08-07T00:37:22;100909.00;;;12.40
29423;BMP180;16399;51.686;8.684;2022-08-07T00:40:23;100897.00;;;12.30
29423;BMP180;16399;51.686;8.684;2022-08-07T00:43:26;100907.00;;;12.30
29423;BMP180;16399;51.686;8.684;2022-08-07T00:46:32;100899.00;;;12.30
29423;BMP180;16399;51.686;8.684;2022-08-07T00:49:37;100902.00;;;12.30
29423;BMP180;16399;51.686;8.684;2022-08-07T00:52:43;100899.00;;;12.30
29423;BMP180;16399;51.686;8.684;2022-08-07T00:55:47;100899.00;;;12.30
29423;BMP180;16399;51.686;8.684;2022-08-07T00:58:49;100887.00;;;12.20
29423;BMP180;16399;51.686;8.684;2022-08-07T01:01:53;100891.00;;;12.20
29423;BMP180;16399;51.686;8.684;2022-08-07T01:04:58;100893.00;;;12.20
29423;BMP180;16399;51.686;8.684;2022-08-07T01:08:01;100881.00;;;12.20
29423;BMP180;16399;51.686;8.684;2022-08-07T01:11:03;100890.00;;;12.10
29423;BMP180;16399;51.686;8.684;2022-08-07T01:14:13;100888.00;;;12.10
29423;BMP180;16399;51.686;8.684;2022-08-07T01:17:12;100886.00;;;12.10
29423;BMP180;16399;51.686;8.684;2022-08-07T01:20:16;100880.00;;;12.00
29423;BMP180;16399;51.686;8.684;2022-08-07T01:23:24;100893.00;;;12.00
29423;BMP180;16399;51.686;8.684;2022-08-07T01:26:23;100891.00;;;11.90
29423;BMP180;16399;51.686;8.684;2022-08-07T01:29:28;100891.00;;;11.90
29423;BMP180;16399;51.686;8.684;2022-08-07T01:32:35;100888.00;;;11.90
29423;BMP180;16399;51.686;8.684;2022-08-07T01:35:38;100892.00;;;11.90
29423;BMP180;16399;51.686;8.684;2022-08-07T01:38:45;100886.00;;;11.80
29423;BMP180;16399;51.686;8.684;2022-08-07T01:41:45;100883.00;;;11.80
29423;BMP180;16399;51.686;8.684;2022-08-07T01:44:48;100878.00;;;11.70
29423;BMP180;16399;51.686;8.684;2022-08-07T01:47:50;100879.00;;;11.70
29423;BMP180;16399;51.686;8.684;2022-08-07T01:54:06;100887.00;;;11.60
29423;BMP180;16399;51.686;8.684;2022-08-07T01:57:25;100880.00;;;11.60
29423;BMP180;16399;51.686;8.684;2022-08-07T02:00:28;100878.00;;;11.60
29423;BMP180;16399;51.686;8.684;2022-08-07T02:03:32;100873.00;;;11.60
29423;BMP180;16399;51.686;8.684;2022-08-07T02:06:36;100864.00;;;11.60
29423;BMP180;16399;51.686;8.684;2022-08-07T02:09:41;100874.00;;;11.60
29423;BMP180;16399;51.686;8.684;2022-08-07T02:12:45;100868.00;;;11.60
29423;BMP180;16399;51.686;8.684;2022-08-07T02:15:51;100863.00;;;11.50
29423;BMP180;16399;51.686;8.684;2022-08-07T02:18:57;100862.00;;;11.50
29423;BMP180;16399;51.686;8.684;2022-08-07T02:22:00;100866.00;;;11.40
29423;BMP180;16399;51.686;8.684;2022-08-07T02:25:09;100865.00;;;11.40
29423;BMP180;16399;51.686;8.684;2022-08-07T02:28:08;100865.00;;;11.40
29423;BMP180;16399;51.686;8.684;2022-08-07T02:31:17;100869.00;;;11.40
29423;BMP180;16399;51.686;8.684;2022-08-07T02:34:16;100869.00;;;11.40
29423;BMP180;16399;51.686;8.684;2022-08-07T02:37:25;100859.00;;;11.30
29423;BMP180;16399;51.686;8.684;2022-08-07T02:40:27;100864.00;;;11.30
29423;BMP180;16399;51.686;8.684;2022-08-07T02:43:30;100860.00;;;11.30
29423;BMP180;16399;51.686;8.684;2022-08-07T02:46:35;100861.00;;;11.20
29423;BMP180;16399;51.686;8.684;2022-08-07T02:49:38;100855.00;;;11.20
29423;BMP180;16399;51.686;8.684;2022-08-07T02:53:02;100862.00;;;11.20
29423;BMP180;16399;51.686;8.684;2022-08-07T02:56:07;100852.00;;;11.10
29423;BMP180;16399;51.686;8.684;2022-08-07T02:59:12;100856.00;;;11.10
29423;BMP180;16399;51.686;8.684;2022-08-07T03:02:15;100858.00;;;11.10
29423;BMP180;16399;51.686;8.684;2022-08-07T03:05:20;100853.00;;;11.00
29423;BMP180;16399;51.686;8.684;2022-08-07T03:08:24;100855.00;;;11.00
29423;BMP180;16399;51.686;8.684;2022-08-07T03:11:31;100863.00;;;11.00
29423;BMP180;16399;51.686;8.684;2022-08-07T03:14:34;100855.00;;;10.90
29423;BMP180;16399;51.686;8.684;2022-08-07T03:17:37;100855.00;;;11.00
29423;BMP180;16399;51.686;8.684;2022-08-07T03:20:41;100854.00;;;11.00
29423;BMP180;16399;51.686;8.684;2022-08-07T03:23:45;100849.00;;;11.00
29423;BMP180;16399;51.686;8.684;2022-08-07T03:26:52;100848.00;;;11.00
29423;BMP180;16399;51.686;8.684;2022-08-07T03:29:56;100851.00;;;11.00
29423;BMP180;16399;51.686;8.684;2022-08-07T03:33:00;100853.00;;;11.10
29423;BMP180;16399;51.686;8.684;2022-08-07T03:36:07;100844.00;;;11.10
29423;BMP180;16399;51.686;8.684;2022-08-07T03:39:11;100860.00;;;11.10
29423;BMP180;16399;51.686;8.684;2022-08-07T03:42:21;100849.00;;;11.10
29423;BMP180;16399;51.686;8.684;2022-08-07T03:45:29;100844.00;;;11.10
29423;BMP180;16399;51.686;8.684;2022-08-07T03:48:32;100844.00;;;11.10
29423;BMP180;16399;51.686;8.684;2022-08-07T03:51:36;100846.00;;;11.20
29423;BMP180;16399;51.686;8.684;2022-08-07T03:54:38;100852.00;;;11.20
29423;BMP180;16399;51.686;8.684;2022-08-07T03:57:46;100843.00;;;11.10
29423;BMP180;16399;51.686;8.684;2022-08-07T04:00:47;100849.00;;;11.20
29423;BMP180;16399;51.686;8.684;2022-08-07T04:03:55;100844.00;;;11.10
29423;BMP180;16399;51.686;8.684;2022-08-07T04:07:01;100844.00;;;11.10
29423;BMP180;16399;51.686;8.684;2022-08-07T04:10:07;100857.00;;;11.10
29423;BMP180;16399;51.686;8.684;2022-08-07T04:13:13;100851.00;;;11.10
29423;BMP180;16399;51.686;8.684;2022-08-07T04:16:17;100848.00;;;11.10
29423;BMP180;16399;51.686;8.684;2022-08-07T04:19:21;100845.00;;;11.10
29423;BMP180;16399;51.686;8.684;2022-08-07T04:22:25;100852.00;;;11.10
29423;BMP180;16399;51.686;8.684;2022-08-07T04:25:33;100848.00;;;11.10
29423;BMP180;16399;51.686;8.684;2022-08-07T04:28:40;100847.00;;;11.10
29423;BMP180;16399;51.686;8.684;2022-08-07T04:31:43;100848.00;;;11.10
29423;BMP180;16399;51.686;8.684;2022-08-07T04:34:48;100845.00;;;11.20
29423;BMP180;16399;51.686;8.684;2022-08-07T04:37:52;100836.00;;;11.20
29423;BMP180;16399;51.686;8.684;2022-08-07T04:40:55;100844.00;;;11.30
29423;BMP180;16399;51.686;8.684;2022-08-07T04:43:58;100843.00;;;11.30
29423;BMP180;16399;51.686;8.684;2022-08-07T04:47:08;100845.00;;;11.50
29423;BMP180;16399;51.686;8.684;2022-08-07T04:50:24;100848.00;;;11.90
29423;BMP180;16399;51.686;8.684;2022-08-07T04:53:30;100845.00;;;12.30
29423;BMP180;16399;51.686;8.684;2022-08-07T04:56:43;100846.00;;;12.60
29423;BMP180;16399;51.686;8.684;2022-08-07T05:00:07;100837.00;;;12.80
29423;BMP180;16399;51.686;8.684;2022-08-07T05:06:40;100838.00;;;13.20
29423;BMP180;16399;51.686;8.684;2022-08-07T05:10:15;100833.00;;;13.30
29423;BMP180;16399;51.686;8.684;2022-08-07T05:13:30;100837.00;;;13.40
29423;BMP180;16399;51.686;8.684;2022-08-07T05:16:37;100829.00;;;13.60
29423;BMP180;16399;51.686;8.684;2022-08-07T05:19:47;100834.00;;;13.70
29423;BMP180;16399;51.686;8.684;2022-08-07T05:22:54;100838.00;;;13.90
29423;BMP180;16399;51.686;8.684;2022-08-07T05:25:53;100837.00;;;14.00
29423;BMP180;16399;51.686;8.684;2022-08-07T05:28:58;100848.00;;;14.10
29423;BMP180;16399;51.686;8.684;2022-08-07T05:32:00;100839.00;;;14.30
29423;BMP180;16399;51.686;8.684;2022-08-07T05:35:05;100846.00;;;14.50
29423;BMP180;16399;51.686;8.684;2022-08-07T05:38:08;100857.00;;;14.60
29423;BMP180;16399;51.686;8.684;2022-08-07T05:41:16;100853.00;;;14.70
29423;BMP180;16399;51.686;8.684;2022-08-07T05:44:20;100853.00;;;14.70
29423;BMP180;16399;51.686;8.684;2022-08-07T05:47:24;100862.00;;;14.70
29423;BMP180;16399;51.686;8.684;2022-08-07T05:50:30;100849.00;;;14.70
29423;BMP180;16399;51.686;8.684;2022-08-07T05:53:37;100864.00;;;14.70
29423;BMP180;16399;51.686;8.684;2022-08-07T05:56:43;100859.00;;;14.80
29423;BMP180;16399;51.686;8.684;2022-08-07T05:59:45;100859.00;;;14.80
29423;BMP180;16399;51.686;8.684;2022-08-07T06:02:51;100854.00;;;14.80
29423;BMP180;16399;51.686;8.684;2022-08-07T06:05:55;100858.00;;;14.90
29423;BMP180;16399;51.686;8.684;2022-08-07T06:09:02;100863.00;;;15.10
29423;BMP180;16399;51.686;8.684;2022-08-07T06:12:04;100859.00;;;15.20
29423;BMP180;16399;51.686;8.684;2022-08-07T06:15:10;100867.00;;;15.30
29423;BMP180;16399;51.686;8.684;2022-08-07T06:18:14;100859.00;;;15.50
29423;BMP180;16399;51.686;8.684;2022-08-07T06:21:18;100862.00;;;15.60
29423;BMP180;16399;51.686;8.684;2022-08-07T06:24:20;100858.00;;;15.80
29423;BMP180;16399;51.686;8.684;2022-08-07T06:27:26;100863.00;;;15.90
29423;BMP180;16399;51.686;8.684;2022-08-07T06:30:28;100861.00;;;16.10
29423;BMP180;16399;51.686;8.684;2022-08-07T06:33:43;100858.00;;;16.30
29423;BMP180;16399;51.686;8.684;2022-08-07T06:36:43;100861.00;;;16.50
29423;BMP180;16399;51.686;8.684;2022-08-07T06:39:45;100860.00;;;16.60
29423;BMP180;16399;51.686;8.684;2022-08-07T06:42:48;100855.00;;;16.70
29423;BMP180;16399;51.686;8.684;2022-08-07T06:45:53;100855.00;;;16.90
29423;BMP180;16399;51.686;8.684;2022-08-07T06:48:59;100853.00;;;16.90
29423;BMP180;16399;51.686;8.684;2022-08-07T06:52:03;100852.00;;;17.00
29423;BMP180;16399;51.686;8.684;2022-08-07T06:55:13;100851.00;;;17.20
29423;BMP180;16399;51.686;8.684;2022-08-07T06:58:14;100857.00;;;17.30
29423;BMP180;16399;51.686;8.684;2022-08-07T07:01:17;100844.00;;;17.40
29423;BMP180;16399;51.686;8.684;2022-08-07T07:04:20;100845.00;;;17.50
29423;BMP180;16399;51.686;8.684;2022-08-07T07:07:24;100838.00;;;17.70
29423;BMP180;16399;51.686;8.684;2022-08-07T07:10:29;100850.00;;;17.90
29423;BMP180;16399;51.686;8.684;2022-08-07T07:13:42;100831.00;;;18.00
29423;BMP180;16399;51.686;8.684;2022-08-07T07:16:47;100844.00;;;18.20
29423;BMP180;16399;51.686;8.684;2022-08-07T07:19:55;100833.00;;;18.40
29423;BMP180;16399;51.686;8.684;2022-08-07T07:23:03;100831.00;;;18.60
29423;BMP180;16399;51.686;8.684;2022-08-07T07:26:14;100831.00;;;18.70
29423;BMP180;16399;51.686;8.684;2022-08-07T07:29:20;100828.00;;;18.90
29423;BMP180;16399;51.686;8.684;2022-08-07T07:32:23;100827.00;;;19.00
29423;BMP180;16399;51.686;8.684;2022-08-07T07:35:27;100831.00;;;19.10
29423;BMP180;16399;51.686;8.684;2022-08-07T07:38:31;100831.00;;;19.30
29423;BMP180;16399;51.686;8.684;2022-08-07T07:41:35;100837.00;;;19.40
29423;BMP180;16399;51.686;8.684;2022-08-07T07:44:41;100823.00;;;19.60
29423;BMP180;16399;51.686;8.684;2022-08-07T07:47:44;100820.00;;;19.70
29423;BMP180;16399;51.686;8.684;2022-08-07T07:50:54;100818.00;;;19.80
29423;BMP180;16399;51.686;8.684;2022-08-07T07:53:54;100810.00;;;19.90
29423;BMP180;16399;51.686;8.684;2022-08-07T07:57:00;100809.00;;;20.10
29423;BMP180;16399;51.686;8.684;2022-08-07T08:00:05;100816.00;;;20.20
29423;BMP180;16399;51.686;8.684;2022-08-07T08:03:12;100804.00;;;20.30
29423;BMP180;16399;51.686;8.684;2022-08-07T08:06:17;100806.00;;;20.50
29423;BMP180;16399;51.686;8.684;2022-08-07T08:09:25;100795.00;;;20.60
29423;BMP180;16399;51.686;8.684;2022-08-07T08:12:30;100789.00;;;20.80
29423;BMP180;16399;51.686;8.684;2022-08-07T08:15:35;100791.00;;;21.00
29423;BMP180;16399;51.686;8.684;2022-08-07T08:18:38;100783.00;;;21.20
29423;BMP180;16399;51.686;8.684;2022-08-07T08:21:46;100785.00;;;21.30
29423;BMP180;16399;51.686;8.684;2022-08-07T08:25:13;100786.00;;;21.50
29423;BMP180;16399;51.686;8.684;2022-08-07T08:28:39;100793.00;;;21.80
29423;BMP180;16399;51.686;8.684;2022-08-07T08:31:44;100778.00;;;22.10
29423;BMP180;16399;51.686;8.684;2022-08-07T08:34:49;100780.00;;;22.30
29423;BMP180;16399;51.686;8.684;2022-08-07T08:37:57;100780.00;;;22.70
29423;BMP180;16399;51.686;8.684;2022-08-07T08:41:26;100780.00;;;22.90
29423;BMP180;16399;51.686;8.684;2022-08-07T08:44:39;100778.00;;;23.00
29423;BMP180;16399;51.686;8.684;2022-08-07T08:51:26;100780.00;;;23.20
29423;BMP180;16399;51.686;8.684;2022-08-07T08:54:34;100774.00;;;23.20
29423;BMP180;16399;51.686;8.684;2022-08-07T09:04:59;100786.00;;;22.90
29423;BMP180;16399;51.686;8.684;2022-08-07T09:11:42;100780.00;;;22.30
29423;BMP180;16399;51.686;8.684;2022-08-07T09:14:43;100761.00;;;22.10
29423;BMP180;16399;51.686;8.684;2022-08-07T09:17:52;100774.00;;;22.30
29423;BMP180;16399;51.686;8.684;2022-08-07T09:21:03;100757.00;;;22.50
29423;BMP180;16399;51.686;8.684;2022-08-07T09:24:15;100760.00;;;23.00
29423;BMP180;16399;51.686;8.684;2022-08-07T09:27:28;100760.00;;;23.60
29423;BMP180;16399;51.686;8.684;2022-08-07T09:34:17;100755.00;;;23.90
29423;BMP180;16399;51.686;8.684;2022-08-07T09:37:42;100759.00;;;23.70
29423;BMP180;16399;51.686;8.684;2022-08-07T09:41:14;100757.00;;;23.50
29423;BMP180;16399;51.686;8.684;2022-08-07T09:47:59;100747.00;;;22.80
29423;BMP180;16399;51.686;8.684;2022-08-07T09:54:25;100748.00;;;23.00
29423;BMP180;16399;51.686;8.684;2022-08-07T09:57:54;100754.00;;;23.10
29423;BMP180;16399;51.686;8.684;2022-08-07T10:01:18;100756.00;;;22.90
29423;BMP180;16399;51.686;8.684;2022-08-07T10:04:32;100750.00;;;22.50
29423;BMP180;16399;51.686;8.684;2022-08-07T10:14:44;100729.00;;;22.70
29423;BMP180;16399;51.686;8.684;2022-08-07T10:18:00;100734.00;;;23.00
29423;BMP180;16399;51.686;8.684;2022-08-07T10:24:28;100713.00;;;23.10
29423;BMP180;16399;51.686;8.684;2022-08-07T10:34:26;100735.00;;;22.70
29423;BMP180;16399;51.686;8.684;2022-08-07T10:44:55;100720.00;;;23.40
29423;BMP180;16399;51.686;8.684;2022-08-07T10:51:49;100708.00;;;24.40
29423;BMP180;16399;51.686;8.684;2022-08-07T10:58:17;100710.00;;;24.90
29423;BMP180;16399;51.686;8.684;2022-08-07T11:08:08;100707.00;;;25.30
29423;BMP180;16399;51.686;8.684;2022-08-07T11:11:17;100694.00;;;24.90
29423;BMP180;16399;51.686;8.684;2022-08-07T11:14:40;100688.00;;;24.60
29423;BMP180;16399;51.686;8.684;2022-08-07T11:17:51;100683.00;;;24.70
29423;BMP180;16399;51.686;8.684;2022-08-07T11:21:00;100680.00;;;24.60
29423;BMP180;16399;51.686;8.684;2022-08-07T11:24:15;100683.00;;;24.60
29423;BMP180;16399;51.686;8.684;2022-08-07T11:27:29;100685.00;;;24.70
29423;BMP180;16399;51.686;8.684;2022-08-07T11:30:36;100680.00;;;24.70
29423;BMP180;16399;51.686;8.684;2022-08-07T11:40:56;100665.00;;;24.90
29423;BMP180;16399;51.686;8.684;2022-08-07T11:44:13;100655.00;;;25.00
29423;BMP180;16399;51.686;8.684;2022-08-07T11:47:28;100652.00;;;25.10
29423;BMP180;16399;51.686;8.684;2022-08-07T11:50:57;100653.00;;;25.10
29423;BMP180;16399;51.686;8.684;2022-08-07T11:54:14;100659.00;;;25.00
29423;BMP180;16399;51.686;8.684;2022-08-07T12:00:50;100656.00;;;25.00
29423;BMP180;16399;51.686;8.684;2022-08-07T12:07:17;100650.00;;;24.80
29423;BMP180;16399;51.686;8.684;2022-08-07T12:10:26;100644.00;;;25.10
29423;BMP180;16399;51.686;8.684;2022-08-07T12:16:50;100640.00;;;25.70
29423;BMP180;16399;51.686;8.684;2022-08-07T12:19:58;100649.00;;;25.90
29423;BMP180;16399;51.686;8.684;2022-08-07T12:26:44;100647.00;;;26.20
29423;BMP180;16399;51.686;8.684;2022-08-07T12:29:57;100649.00;;;26.10
29423;BMP180;16399;51.686;8.684;2022-08-07T12:33:09;100649.00;;;26.10
29423;BMP180;16399;51.686;8.684;2022-08-07T12:36:10;100638.00;;;26.00
29423;BMP180;16399;51.686;8.684;2022-08-07T12:39:14;100628.00;;;25.90
29423;BMP180;16399;51.686;8.684;2022-08-07T12:42:24;100633.00;;;25.80
29423;BMP180;16399;51.686;8.684;2022-08-07T12:45:40;100635.00;;;25.80
29423;BMP180;16399;51.686;8.684;2022-08-07T12:48:52;100586.00;;;25.80
29423;BMP180;16399;51.686;8.684;2022-08-07T12:52:09;100620.00;;;25.20
29423;BMP180;16399;51.686;8.684;2022-08-07T12:55:07;100614.00;;;25.10
29423;BMP180;16399;51.686;8.684;2022-08-07T12:58:13;100613.00;;;24.90
29423;BMP180;16399;51.686;8.684;2022-08-07T13:05:01;100616.00;;;24.80
29423;BMP180;16399;51.686;8.684;2022-08-07T13:11:57;100606.00;;;24.50
29423;BMP180;16399;51.686;8.684;2022-08-07T13:15:27;100610.00;;;24.40
29423;BMP180;16399;51.686;8.684;2022-08-07T13:21:52;100590.00;;;24.10
29423;BMP180;16399;51.686;8.684;2022-08-07T13:24:59;100609.00;;;24.00
29423;BMP180;16399;51.686;8.684;2022-08-07T13:28:03;100601.00;;;23.90
29423;BMP180;16399;51.686;8.684;2022-08-07T13:31:20;100601.00;;;24.00
29423;BMP180;16399;51.686;8.684;2022-08-07T13:34:55;100595.00;;;24.10
29423;BMP180;16399;51.686;8.684;2022-08-07T13:38:13;100591.00;;;24.20
29423;BMP180;16399;51.686;8.684;2022-08-07T13:44:35;100597.00;;;24.20
29423;BMP180;16399;51.686;8.684;2022-08-07T13:47:40;100596.00;;;24.10
29423;BMP180;16399;51.686;8.684;2022-08-07T13:50:42;100588.00;;;24.10
29423;BMP180;16399;51.686;8.684;2022-08-07T13:53:53;100586.00;;;24.10
29423;BMP180;16399;51.686;8.684;2022-08-07T13:56:54;100582.00;;;24.20
29423;BMP180;16399;51.686;8.684;2022-08-07T13:59:59;100571.00;;;24.30
29423;BMP180;16399;51.686;8.684;2022-08-07T14:03:05;100573.00;;;24.40
29423;BMP180;16399;51.686;8.684;2022-08-07T14:06:07;100574.00;;;24.40
29423;BMP180;16399;51.686;8.684;2022-08-07T14:09:22;100572.00;;;24.50
29423;BMP180;16399;51.686;8.684;2022-08-07T14:12:44;100566.00;;;24.60
29423;BMP180;16399;51.686;8.684;2022-08-07T14:15:57;100569.00;;;24.60
29423;BMP180;16399;51.686;8.684;2022-08-07T14:19:02;100571.00;;;24.50
29423;BMP180;16399;51.686;8.684;2022-08-07T14:22:06;100567.00;;;24.40
29423;BMP180;16399;51.686;8.684;2022-08-07T14:25:12;100568.00;;;24.40
29423;BMP180;16399;51.686;8.684;2022-08-07T14:28:16;100561.00;;;24.30
29423;BMP180;16399;51.686;8.684;2022-08-07T14:31:22;100561.00;;;24.20
29423;BMP180;16399;51.686;8.684;2022-08-07T14:34:27;100558.00;;;24.30
29423;BMP180;16399;51.686;8.684;2022-08-07T14:37:30;100565.00;;;24.30
29423;BMP180;16399;51.686;8.684;2022-08-07T14:40:34;100555.00;;;24.30
29423;BMP180;16399;51.686;8.684;2022-08-07T14:43:41;100551.00;;;24.30
29423;BMP180;16399;51.686;8.684;2022-08-07T14:46:44;100543.00;;;24.20
29423;BMP180;16399;51.686;8.684;2022-08-07T14:49:47;100547.00;;;24.10
29423;BMP180;16399;51.686;8.684;2022-08-07T14:52:50;100543.00;;;24.10
29423;BMP180;16399;51.686;8.684;2022-08-07T14:55:54;100547.00;;;24.10
29423;BMP180;16399;51.686;8.684;2022-08-07T14:59:00;100532.00;;;24.20
29423;BMP180;16399;51.686;8.684;2022-08-07T15:02:14;100541.00;;;24.20
29423;BMP180;16399;51.686;8.684;2022-08-07T15:05:17;100527.00;;;24.30
29423;BMP180;16399;51.686;8.684;2022-08-07T15:08:42;100531.00;;;24.30
29423;BMP180;16399;51.686;8.684;2022-08-07T15:11:46;100524.00;;;24.40
29423;BMP180;16399;51.686;8.684;2022-08-07T15:14:54;100524.00;;;24.30
29423;BMP180;16399;51.686;8.684;2022-08-07T15:17:58;100525.00;;;24.40
29423;BMP180;16399;51.686;8.684;2022-08-07T15:21:04;100520.00;;;24.40
29423;BMP180;16399;51.686;8.684;2022-08-07T15:24:09;100526.00;;;24.50
29423;BMP180;16399;51.686;8.684;2022-08-07T15:27:15;100519.00;;;24.50
29423;BMP180;16399;51.686;8.684;2022-08-07T15:30:18;100524.00;;;24.50
29423;BMP180;16399;51.686;8.684;2022-08-07T15:33:20;100524.00;;;24.40
29423;BMP180;16399;51.686;8.684;2022-08-07T15:36:24;100517.00;;;24.40
29423;BMP180;16399;51.686;8.684;2022-08-07T15:39:27;100523.00;;;24.40
29423;BMP180;16399;51.686;8.684;2022-08-07T15:45:45;100509.00;;;24.40
29423;BMP180;16399;51.686;8.684;2022-08-07T15:48:49;100511.00;;;24.50
29423;BMP180;16399;51.686;8.684;2022-08-07T15:51:53;100505.00;;;24.50
29423;BMP180;16399;51.686;8.684;2022-08-07T15:54:58;100513.00;;;24.50
29423;BMP180;16399;51.686;8.684;2022-08-07T15:58:00;100501.00;;;24.50
29423;BMP180;16399;51.686;8.684;2022-08-07T16:01:05;100505.00;;;24.50
29423;BMP180;16399;51.686;8.684;2022-08-07T16:04:11;100501.00;;;24.40
29423;BMP180;16399;51.686;8.684;2022-08-07T16:07:14;100501.00;;;24.40
29423;BMP180;16399;51.686;8.684;2022-08-07T16:10:24;100506.00;;;24.30
29423;BMP180;16399;51.686;8.684;2022-08-07T16:13:25;100491.00;;;24.30
29423;BMP180;16399;51.686;8.684;2022-08-07T16:23:30;100490.00;;;24.20
29423;BMP180;16399;51.686;8.684;2022-08-07T16:26:43;100488.00;;;24.10
29423;BMP180;16399;51.686;8.684;2022-08-07T16:33:10;100491.00;;;24.00
29423;BMP180;16399;51.686;8.684;2022-08-07T16:36:33;100493.00;;;24.00
29423;BMP180;16399;51.686;8.684;2022-08-07T16:43:49;100496.00;;;23.90
29423;BMP180;16399;51.686;8.684;2022-08-07T16:47:09;100500.00;;;23.80
29423;BMP180;16399;51.686;8.684;2022-08-07T16:50:32;100497.00;;;23.70
29423;BMP180;16399;51.686;8.684;2022-08-07T17:06:36;100497.00;;;23.40
29423;BMP180;16399;51.686;8.684;2022-08-07T17:09:54;100500.00;;;23.30
29423;BMP180;16399;51.686;8.684;2022-08-07T17:13:03;100492.00;;;23.20
29423;BMP180;16399;51.686;8.684;2022-08-07T17:16:24;100494.00;;;23.20
29423;BMP180;16399;51.686;8.684;2022-08-07T17:19:39;100493.00;;;23.10
29423;BMP180;16399;51.686;8.684;2022-08-07T17:23:09;100487.00;;;23.00
29423;BMP180;16399;51.686;8.684;2022-08-07T17:29:20;100471.00;;;22.80
29423;BMP180;16399;51.686;8.684;2022-08-07T17:32:38;100496.00;;;22.70
29423;BMP180;16399;51.686;8.684;2022-08-07T17:36:05;100493.00;;;22.60
29423;BMP180;16399;51.686;8.684;2022-08-07T17:38:53;100495.00;;;22.50
29423;BMP180;16399;51.686;8.684;2022-08-07T17:41:58;100490.00;;;22.40
29423;BMP180;16399;51.686;8.684;2022-08-07T17:45:08;100495.00;;;22.30
29423;BMP180;16399;51.686;8.684;2022-08-07T17:51:30;100499.00;;;22.00
29423;BMP180;16399;51.686;8.684;2022-08-07T17:54:53;100493.00;;;22.00
29423;BMP180;16399;51.686;8.684;2022-08-07T17:58:06;100493.00;;;21.90
29423;BMP180;16399;51.686;8.684;2022-08-07T18:01:13;100497.00;;;21.80
29423;BMP180;16399;51.686;8.684;2022-08-07T18:04:26;100497.00;;;21.70
29423;BMP180;16399;51.686;8.684;2022-08-07T18:07:39;100496.00;;;21.70
29423;BMP180;16399;51.686;8.684;2022-08-07T18:14:10;100497.00;;;21.60
29423;BMP180;16399;51.686;8.684;2022-08-07T18:20:32;100500.00;;;21.50
29423;BMP180;16399;51.686;8.684;2022-08-07T18:24:01;100504.00;;;21.50
29423;BMP180;16399;51.686;8.684;2022-08-07T18:34:21;100510.00;;;21.30
29423;BMP180;16399;51.686;8.684;2022-08-07T18:37:50;100515.00;;;21.20
29423;BMP180;16399;51.686;8.684;2022-08-07T18:46:55;100524.00;;;21.00
29423;BMP180;16399;51.686;8.684;2022-08-07T18:50:43;100527.00;;;20.90
29423;BMP180;16399;51.686;8.684;2022-08-07T18:56:51;100534.00;;;20.80
29423;BMP180;16399;51.686;8.684;2022-08-07T19:00:06;100543.00;;;20.70
29423;BMP180;16399;51.686;8.684;2022-08-07T19:03:27;100544.00;;;20.60
29423;BMP180;16399;51.686;8.684;2022-08-07T19:10:03;100547.00;;;20.40
29423;BMP180;16399;51.686;8.684;2022-08-07T19:13:16;100547.00;;;20.30
29423;BMP180;16399;51.686;8.684;2022-08-07T19:16:28;100556.00;;;20.30
29423;BMP180;16399;51.686;8.684;2022-08-07T19:20:15;100565.00;;;20.30
29423;BMP180;16399;51.686;8.684;2022-08-07T19:22:43;100570.00;;;20.20
29423;BMP180;16399;51.686;8.684;2022-08-07T19:25:43;100563.00;;;20.20
29423;BMP180;16399;51.686;8.684;2022-08-07T19:28:50;100581.00;;;20.10
29423;BMP180;16399;51.686;8.684;2022-08-07T19:31:57;100581.00;;;20.00
29423;BMP180;16399;51.686;8.684;2022-08-07T19:35:01;100579.00;;;19.80
29423;BMP180;16399;51.686;8.684;2022-08-07T19:38:09;100586.00;;;19.70
29423;BMP180;16399;51.686;8.684;2022-08-07T19:41:12;100583.00;;;19.60
29423;BMP180;16399;51.686;8.684;2022-08-07T19:44:23;100595.00;;;19.50
29423;BMP180;16399;51.686;8.684;2022-08-07T19:47:25;100594.00;;;19.40
29423;BMP180;16399;51.686;8.684;2022-08-07T19:50:27;100597.00;;;19.30
29423;BMP180;16399;51.686;8.684;2022-08-07T19:53:30;100591.00;;;19.30
29423;BMP180;16399;51.686;8.684;2022-08-07T19:56:35;100602.00;;;19.20
29423;BMP180;16399;51.686;8.684;2022-08-07T19:59:40;100597.00;;;19.20
29423;BMP180;16399;51.686;8.684;2022-08-07T20:02:46;100599.00;;;19.10
29423;BMP180;16399;51.686;8.684;2022-08-07T20:05:55;100603.00;;;19.10
29423;BMP180;16399;51.686;8.684;2022-08-07T20:08:58;100600.00;;;19.00
29423;BMP180;16399;51.686;8.684;2022-08-07T20:12:02;100594.00;;;18.90
29423;BMP180;16399;51.686;8.684;2022-08-07T20:15:06;100597.00;;;18.80
29423;BMP180;16399;51.686;8.684;2022-08-07T20:18:10;100596.00;;;18.80
29423;BMP180;16399;51.686;8.684;2022-08-07T20:21:13;100598.00;;;18.70
29423;BMP180;16399;51.686;8.684;2022-08-07T20:24:21;100593.00;;;18.60
29423;BMP180;16399;51.686;8.684;2022-08-07T20:27:24;100601.00;;;18.60
29423;BMP180;16399;51.686;8.684;2022-08-07T20:30:31;100595.00;;;18.60
29423;BMP180;16399;51.686;8.684;2022-08-07T20:33:34;100594.00;;;18.60